YTEF/TEF METAR and TAF weather

Enter ICAO airport designator
Station Type Date Time Source
YTEF METAR 2019/10/23 12:00 UTC NOAA

YTEF 231200Z AUTO 02009KT 9999 // NCD 35/05 Q1010


Station Type Date Time Source
YTEF Decoded METAR 2019/10/23 12:00 UTC NOAA

Station name not available
Oct 23, 2019 - 08:00 AM EDT / 2019.10.23 1200 UTC
Wind: from the NNE (020 degrees) at 10 MPH (9 KT):0
Visibility: greater than 7 mile(s):0
Temperature: 95 F (35 C)
Dew Point: 41 F (5 C)
Relative Humidity: 15%
Pressure (altimeter): 29.83 in. Hg (1010 hPa)
ob: YTEF 231200Z AUTO 02009KT 9999 // NCD 35/05 Q1010
cycle: 12

Station Type Date Time Source
YTEF TAF 2017/06/24 02:03 UTC NOAA

TAF TAF YTEF 240051Z 2402/2414 12005KT CAVOK
FM240500 33005KT 9999 -SHRA SCT060 BKN100

Example: see airport list